Time;durP1;ratioP1;P1;durP2;ratioP2;P2;SDS_P1;SDS_P2;PMS_P1;PMS_P2;Temp;Humidity;BMP_temperature;BMP_pressure;BME280_temperature;BME280_humidity;BME280_pressure;Samples;Min_cycle;Max_cycle;Signal;HPM_P1;HPM_P2
2022/04/23 00:00:27;;;;;;;;;;;12.10;91.30;;;;;;5058491;28;19960;-51
2022/04/23 00:02:53;;;;;;;;;;;12.10;82.50;;;;;;5061499;28;19916;-50
2022/04/23 00:05:18;;;;;;;;;;;12.10;86.80;;;;;;5059912;28;20000;-49
2022/04/23 00:07:44;;;;;;;;;;;12.00;79.30;;;;;;5056634;28;19940;-50
2022/04/23 00:10:09;;;;;;;;;;;12.00;91.30;;;;;;5070499;28;19920;-50
2022/04/23 00:12:35;;;;;;;;;;;12.00;93.50;;;;;;5056349;28;19927;-46
2022/04/23 00:15:01;;;;;;;;;;;11.90;90.30;;;;;;5063673;28;20331;-46
2022/04/23 00:17:26;;;;;;;;;;;11.80;89.60;;;;;;5058004;28;20416;-48
2022/04/23 00:19:53;;;;;;;;;;;11.80;92.00;;;;;;5039329;28;20007;-49
2022/04/23 00:22:19;;;;;;;;;;;11.80;85.30;;;;;;5059532;28;20424;-51
2022/04/23 00:24:44;;;;;;;;;;;11.80;86.10;;;;;;5057707;28;19924;-50
2022/04/23 00:27:10;;;;;;;;;;;11.80;91.90;;;;;;5061806;28;19917;-46
2022/04/23 00:29:36;;;;;;;;;;;11.80;80.30;;;;;;5058549;28;19982;-48
2022/04/23 00:32:02;;;;;;;;;;;11.80;91.00;;;;;;5022454;28;20369;-45
2022/04/23 00:34:28;;;;;;;;;;;11.80;89.20;;;;;;5064098;28;19971;-47
2022/04/23 00:36:54;;;;;;;;;;;11.70;93.40;;;;;;5065296;28;20345;-46
2022/04/23 00:39:20;;;;;;;;;;;11.70;91.30;;;;;;5066413;28;19916;-49
2022/04/23 00:41:48;;;;;;;;;;;11.70;85.80;;;;;;5066057;28;19928;-51
2022/04/23 00:44:14;;;;;;;;;;;11.60;94.20;;;;;;5062719;28;20376;-49
2022/04/23 00:46:40;;;;;;;;;;;11.60;86.80;;;;;;5064577;28;20393;-48
2022/04/23 00:49:06;;;;;;;;;;;11.60;87.60;;;;;;5052692;28;19964;-46
2022/04/23 00:51:32;;;;;;;;;;;11.60;92.50;;;;;;5085868;28;19929;-50
2022/04/23 00:53:59;;;;;;;;;;;11.60;92.00;;;;;;5089031;28;19935;-50
2022/04/23 00:56:25;;;;;;;;;;;11.60;94.50;;;;;;5086607;28;19915;-50
2022/04/23 00:58:51;;;;;;;;;;;11.50;90.50;;;;;;5083431;28;20006;-46
2022/04/23 01:01:18;;;;;;;;;;;11.60;94.20;;;;;;5087127;28;20089;-43
2022/04/23 01:03:44;;;;;;;;;;;11.50;94.30;;;;;;5087922;28;19924;-50
2022/04/23 01:06:13;;;;;;;;;;;11.50;95.40;;;;;;5093657;28;19924;-50
2022/04/23 01:08:39;;;;;;;;;;;11.50;94.40;;;;;;5086181;28;19999;-48
2022/04/23 01:11:05;;;;;;;;;;;11.40;95.30;;;;;;5090878;28;20072;-50
2022/04/23 01:13:32;;;;;;;;;;;11.40;94.00;;;;;;5088403;28;19931;-49
2022/04/23 01:16:09;;;;;;;;;;;11.40;94.60;;;;;;5082920;28;19920;-51
2022/04/23 01:18:39;;;;;;;;;;;11.30;94.30;;;;;;5079699;28;19923;-50
2022/04/23 01:21:05;;;;;;;;;;;11.30;96.60;;;;;;5084880;28;20006;-48
2022/04/23 01:23:31;;;;;;;;;;;11.30;97.40;;;;;;5086218;28;19930;-47
2022/04/23 01:25:57;;;;;;;;;;;11.30;92.20;;;;;;5081993;28;20021;-50
2022/04/23 01:28:23;;;;;;;;;;;11.30;91.20;;;;;;5080925;28;19924;-50
2022/04/23 01:30:53;;;;;;;;;;;11.30;97.60;;;;;;5082969;28;19924;-52
2022/04/23 01:33:19;;;;;;;;;;;11.30;96.50;;;;;;5080002;28;20388;-47
2022/04/23 01:35:45;;;;;;;;;;;11.30;96.10;;;;;;5063617;28;19931;-48
2022/04/23 01:38:11;;;;;;;;;;;11.30;95.10;;;;;;5092670;28;19943;-50
2022/04/23 01:40:36;;;;;;;;;;;11.20;93.30;;;;;;5080298;28;19920;-45
2022/04/23 01:43:02;;;;;;;;;;;11.20;96.60;;;;;;5083104;28;19916;-50
2022/04/23 01:45:27;;;;;;;;;;;11.20;95.50;;;;;;5084263;28;19927;-48
2022/04/23 01:47:53;;;;;;;;;;;11.20;94.70;;;;;;5080739;28;20014;-49
2022/04/23 01:50:19;;;;;;;;;;;11.20;93.60;;;;;;5044705;28;19929;-49
2022/04/23 01:52:44;;;;;;;;;;;11.20;95.70;;;;;;5066284;28;19916;-50
2022/04/23 01:55:10;;;;;;;;;;;11.10;95.30;;;;;;5066870;28;19973;-46
2022/04/23 01:57:36;;;;;;;;;;;11.10;95.70;;;;;;5061975;28;20050;-50
2022/04/23 02:00:04;;;;;;;;;;;11.10;95.00;;;;;;5067050;28;19951;-45
2022/04/23 02:02:29;;;;;;;;;;;11.10;94.40;;;;;;5061706;28;19920;-45
2022/04/23 02:04:56;;;;;;;;;;;11.10;96.50;;;;;;5065753;28;20274;-48
2022/04/23 02:07:21;;;;;;;;;;;11.10;97.20;;;;;;5055414;28;19981;-45
2022/04/23 02:09:47;;;;;;;;;;;11.10;96.90;;;;;;5056996;28;19920;-49
2022/04/23 02:12:12;;;;;;;;;;;11.00;97.60;;;;;;5065076;28;19921;-49
2022/04/23 02:14:38;;;;;;;;;;;11.00;96.20;;;;;;5067099;28;19923;-49
2022/04/23 02:17:03;;;;;;;;;;;11.00;96.50;;;;;;5060996;28;20301;-46
2022/04/23 02:19:29;;;;;;;;;;;10.90;96.40;;;;;;5063222;28;20383;-49
2022/04/23 02:21:54;;;;;;;;;;;10.90;99.90;;;;;;5057797;28;20382;-49
2022/04/23 02:24:21;;;;;;;;;;;10.90;95.80;;;;;;5042494;28;19925;-47
2022/04/23 02:26:46;;;;;;;;;;;10.90;98.90;;;;;;5065096;28;19970;-46
2022/04/23 02:29:12;;;;;;;;;;;10.80;98.50;;;;;;5066009;28;19952;-44
2022/04/23 02:31:37;;;;;;;;;;;10.80;98.60;;;;;;5061617;28;20344;-48
2022/04/23 02:34:03;;;;;;;;;;;10.80;94.70;;;;;;5063345;28;20091;-47
2022/04/23 02:36:28;;;;;;;;;;;10.80;98.30;;;;;;5059647;28;20016;-48
2022/04/23 02:38:54;;;;;;;;;;;10.80;97.00;;;;;;5066139;28;20440;-50
2022/04/23 02:41:20;;;;;;;;;;;10.70;98.90;;;;;;5062959;28;20055;-49
2022/04/23 02:43:45;;;;;;;;;;;10.70;96.40;;;;;;5063669;28;19924;-50
2022/04/23 02:46:14;;;;;;;;;;;10.70;99.60;;;;;;5057705;28;19916;-48
2022/04/23 02:48:40;;;;;;;;;;;10.70;99.10;;;;;;5067740;28;20299;-43
2022/04/23 02:51:05;;;;;;;;;;;10.60;99.10;;;;;;5062018;28;19931;-51
2022/04/23 02:53:31;;;;;;;;;;;10.60;99.90;;;;;;5067108;28;20014;-49
2022/04/23 02:55:57;;;;;;;;;;;10.60;99.90;;;;;;5066205;28;19920;-50
2022/04/23 02:58:24;;;;;;;;;;;10.50;99.00;;;;;;5068718;28;20293;-46
2022/04/23 03:00:49;;;;;;;;;;;10.50;97.30;;;;;;5066464;28;20377;-44
2022/04/23 03:03:15;;;;;;;;;;;10.50;99.50;;;;;;5049521;28;19977;-46
2022/04/23 03:05:42;;;;;;;;;;;10.50;97.90;;;;;;5061477;28;19923;-48
2022/04/23 03:08:09;;;;;;;;;;;10.50;98.90;;;;;;5063192;28;19951;-49
2022/04/23 03:10:35;;;;;;;;;;;10.50;99.90;;;;;;5062244;28;20432;-46
2022/04/23 03:13:00;;;;;;;;;;;10.50;98.70;;;;;;5062101;28;20007;-49
2022/04/23 03:15:26;;;;;;;;;;;10.40;99.90;;;;;;5061905;28;19916;-46
2022/04/23 03:18:05;;;;;;;;;;;10.40;99.90;;;;;;5065354;28;19928;-50
2022/04/23 03:20:31;;;;;;;;;;;10.40;99.90;;;;;;5062619;28;20456;-50
2022/04/23 03:22:56;;;;;;;;;;;10.40;99.90;;;;;;5064929;28;19970;-49
2022/04/23 03:25:22;;;;;;;;;;;10.30;99.90;;;;;;5041861;28;20342;-48
2022/04/23 03:27:48;;;;;;;;;;;10.30;99.90;;;;;;5064894;28;19916;-45
2022/04/23 03:30:13;;;;;;;;;;;10.20;99.90;;;;;;5057516;28;19985;-43
2022/04/23 03:32:39;;;;;;;;;;;10.20;99.00;;;;;;5060769;28;19927;-49
2022/04/23 03:35:07;;;;;;;;;;;10.20;99.90;;;;;;5058082;28;19918;-48
2022/04/23 03:37:36;;;;;;;;;;;10.10;99.90;;;;;;5064512;28;19924;-49
2022/04/23 03:40:05;;;;;;;;;;;10.10;99.90;;;;;;5067559;28;19917;-50
2022/04/23 03:42:31;;;;;;;;;;;10.10;99.90;;;;;;5042509;28;19917;-48
2022/04/23 03:44:56;;;;;;;;;;;10.10;99.90;;;;;;5047736;28;20297;-45
2022/04/23 03:47:23;;;;;;;;;;;10.00;99.90;;;;;;5061515;28;19921;-51
2022/04/23 03:49:49;;;;;;;;;;;10.00;99.90;;;;;;5057169;28;19975;-50
2022/04/23 03:52:14;;;;;;;;;;;10.00;99.90;;;;;;5057149;28;21420;-46
2022/04/23 03:54:40;;;;;;;;;;;10.00;99.90;;;;;;5043495;28;19916;-42
2022/04/23 03:57:05;;;;;;;;;;;10.00;99.90;;;;;;5067181;28;20002;-47
2022/04/23 03:59:31;;;;;;;;;;;10.00;99.90;;;;;;5060347;28;19985;-52
2022/04/23 04:01:56;;;;;;;;;;;10.00;99.90;;;;;;5057097;28;19916;-47
2022/04/23 04:04:22;;;;;;;;;;;10.00;99.90;;;;;;5059839;28;19920;-50
2022/04/23 04:06:47;;;;;;;;;;;9.90;99.90;;;;;;5060193;28;19927;-44
2022/04/23 04:09:13;;;;;;;;;;;9.90;99.90;;;;;;5054469;28;20338;-44
2022/04/23 04:14:23;;;;;;;;;;;10.00;99.90;;;;;;5058465;28;19987;-48
2022/04/23 04:16:49;;;;;;;;;;;10.00;99.90;;;;;;5065897;28;19948;-47
2022/04/23 04:19:15;;;;;;;;;;;10.00;99.20;;;;;;5064623;28;19969;-46
2022/04/23 04:21:43;;;;;;;;;;;10.00;99.80;;;;;;5062592;28;19924;-52
2022/04/23 04:24:12;;;;;;;;;;;10.00;99.90;;;;;;5060236;28;19974;-46
2022/04/23 04:26:41;;;;;;;;;;;10.00;99.90;;;;;;5060908;28;19930;-45
2022/04/23 04:29:07;;;;;;;;;;;9.90;99.90;;;;;;5070795;28;19922;-44
2022/04/23 04:31:47;;;;;;;;;;;9.90;99.90;;;;;;5058047;28;20326;-49
2022/04/23 04:34:13;;;;;;;;;;;9.90;99.90;;;;;;5061865;28;19924;-50
2022/04/23 04:36:39;;;;;;;;;;;9.90;99.90;;;;;;5063749;28;19916;-46
2022/04/23 04:39:04;;;;;;;;;;;9.90;99.90;;;;;;5064275;28;19965;-53
2022/04/23 04:41:31;;;;;;;;;;;9.90;99.90;;;;;;5042995;28;19968;-46
2022/04/23 04:43:57;;;;;;;;;;;9.90;99.90;;;;;;5079782;28;19920;-49
2022/04/23 04:46:22;;;;;;;;;;;9.90;99.90;;;;;;5057233;28;19927;-57
2022/04/23 04:48:49;;;;;;;;;;;9.90;99.90;;;;;;5061968;28;19974;-46
2022/04/23 04:51:15;;;;;;;;;;;9.90;99.90;;;;;;5051983;28;19929;-46
2022/04/23 04:53:40;;;;;;;;;;;9.90;99.90;;;;;;5058760;28;19924;-48
2022/04/23 04:56:07;;;;;;;;;;;9.90;99.90;;;;;;5075188;28;19927;-47
2022/04/23 04:58:33;;;;;;;;;;;9.80;99.90;;;;;;5068781;28;20411;-49
2022/04/23 05:00:58;;;;;;;;;;;9.80;99.90;;;;;;5060766;28;19932;-47
2022/04/23 05:03:25;;;;;;;;;;;9.90;99.90;;;;;;5060194;28;20288;-45
2022/04/23 05:05:51;;;;;;;;;;;9.90;99.90;;;;;;5055043;28;20284;-52
2022/04/23 05:08:17;;;;;;;;;;;9.90;99.90;;;;;;5050650;28;19916;-47
2022/04/23 05:10:42;;;;;;;;;;;9.90;99.90;;;;;;5058641;28;20496;-48
2022/04/23 05:13:08;;;;;;;;;;;9.80;99.90;;;;;;5062501;28;20300;-47
2022/04/23 05:15:34;;;;;;;;;;;9.90;99.90;;;;;;5061324;28;20017;-48
2022/04/23 05:17:59;;;;;;;;;;;9.90;99.90;;;;;;5061397;28;19964;-50
2022/04/23 05:20:25;;;;;;;;;;;9.90;99.90;;;;;;5059450;28;20015;-50
2022/04/23 05:22:50;;;;;;;;;;;9.90;99.90;;;;;;5065148;28;20321;-47
2022/04/23 05:25:16;;;;;;;;;;;9.90;99.90;;;;;;5056489;28;19916;-44
2022/04/23 05:27:41;;;;;;;;;;;9.90;99.90;;;;;;5063681;28;20014;-50
2022/04/23 05:30:07;;;;;;;;;;;9.90;99.50;;;;;;5046040;28;21812;-47
2022/04/23 05:32:33;;;;;;;;;;;9.90;99.90;;;;;;5064647;28;20312;-46
2022/04/23 05:34:58;;;;;;;;;;;9.90;99.90;;;;;;5061213;28;20332;-44
2022/04/23 05:37:24;;;;;;;;;;;9.90;99.90;;;;;;5044521;28;20001;-50
2022/04/23 05:39:50;;;;;;;;;;;10.00;99.90;;;;;;5069152;28;19965;-50
2022/04/23 05:42:15;;;;;;;;;;;10.00;99.90;;;;;;5064560;28;19924;-47
2022/04/23 05:44:41;;;;;;;;;;;10.00;99.90;;;;;;5074430;28;19923;-50
2022/04/23 05:47:06;;;;;;;;;;;10.00;99.90;;;;;;5064747;28;19916;-48
2022/04/23 05:49:32;;;;;;;;;;;10.00;99.40;;;;;;5061769;28;19924;-50
2022/04/23 05:51:57;;;;;;;;;;;10.10;99.90;;;;;;5062989;28;19920;-50
2022/04/23 05:54:23;;;;;;;;;;;10.10;99.90;;;;;;5068752;28;20624;-51
2022/04/23 05:56:48;;;;;;;;;;;10.20;98.20;;;;;;5032920;28;20000;-47
2022/04/23 05:59:14;;;;;;;;;;;10.30;98.90;;;;;;5064034;28;20050;-48
2022/04/23 06:01:39;;;;;;;;;;;10.40;98.50;;;;;;5045368;28;19924;-48
2022/04/23 06:04:05;;;;;;;;;;;10.50;97.70;;;;;;5064202;28;19916;-49
2022/04/23 06:06:30;;;;;;;;;;;10.60;97.50;;;;;;5062329;28;20006;-48
2022/04/23 06:08:57;;;;;;;;;;;10.60;95.10;;;;;;5060482;28;19927;-48
2022/04/23 06:11:22;;;;;;;;;;;10.80;97.20;;;;;;5058845;28;19935;-48
2022/04/23 06:13:48;;;;;;;;;;;10.80;95.50;;;;;;5075915;28;19932;-51
2022/04/23 06:16:13;;;;;;;;;;;10.80;95.90;;;;;;5059660;28;19936;-47
2022/04/23 06:18:39;;;;;;;;;;;10.80;95.60;;;;;;5061265;28;20019;-45
2022/04/23 06:21:04;;;;;;;;;;;10.90;94.20;;;;;;5062001;28;20014;-48
2022/04/23 06:23:30;;;;;;;;;;;11.00;95.80;;;;;;5062715;28;19923;-50
2022/04/23 06:25:55;;;;;;;;;;;11.00;94.50;;;;;;5064707;28;20439;-50
2022/04/23 06:28:21;;;;;;;;;;;11.10;92.70;;;;;;5061406;28;19924;-49
2022/04/23 06:30:46;;;;;;;;;;;11.30;93.00;;;;;;5064885;28;20007;-46
2022/04/23 06:33:12;;;;;;;;;;;11.40;92.80;;;;;;5064210;28;19924;-48
2022/04/23 06:35:37;;;;;;;;;;;11.40;91.10;;;;;;5058192;28;19931;-49
2022/04/23 06:38:03;;;;;;;;;;;11.50;90.80;;;;;;5042619;28;20820;-47
2022/04/23 06:40:29;;;;;;;;;;;11.50;90.30;;;;;;5061333;28;19964;-48
2022/04/23 06:42:55;;;;;;;;;;;11.40;90.40;;;;;;5063673;28;19924;-51
2022/04/23 06:45:20;;;;;;;;;;;11.40;90.50;;;;;;5061188;28;19924;-46
2022/04/23 06:47:46;;;;;;;;;;;11.40;91.80;;;;;;5043569;28;20912;-47
2022/04/23 06:50:11;;;;;;;;;;;11.40;90.40;;;;;;5061397;28;19939;-50
2022/04/23 06:52:37;;;;;;;;;;;11.50;90.10;;;;;;5063014;28;19954;-48
2022/04/23 06:55:03;;;;;;;;;;;11.50;91.00;;;;;;5063418;28;20017;-49
2022/04/23 06:57:28;;;;;;;;;;;11.50;89.10;;;;;;5042324;28;20329;-51
2022/04/23 06:59:54;;;;;;;;;;;11.60;87.70;;;;;;5061785;28;19928;-50
2022/04/23 07:02:20;;;;;;;;;;;11.60;88.30;;;;;;5062668;28;20154;-50
2022/04/23 07:04:46;;;;;;;;;;;11.60;89.10;;;;;;5064124;28;20361;-46
2022/04/23 07:07:11;;;;;;;;;;;11.70;87.30;;;;;;5052949;28;19923;-51
2022/04/23 07:09:37;;;;;;;;;;;11.70;86.60;;;;;;5058742;28;19921;-48
2022/04/23 07:12:03;;;;;;;;;;;11.80;88.20;;;;;;5064949;28;19928;-46
2022/04/23 07:14:29;;;;;;;;;;;11.80;85.90;;;;;;5066108;28;20039;-49
2022/04/23 07:16:54;;;;;;;;;;;11.90;84.40;;;;;;5062984;28;20015;-48
2022/04/23 07:19:20;;;;;;;;;;;11.90;83.50;;;;;;5063314;28;20304;-48
2022/04/23 07:21:45;;;;;;;;;;;11.90;83.60;;;;;;5061907;28;19925;-49
2022/04/23 07:24:13;;;;;;;;;;;12.00;84.30;;;;;;5058758;28;20305;-51
2022/04/23 07:26:38;;;;;;;;;;;12.10;82.90;;;;;;5058258;28;20389;-51
2022/04/23 07:29:06;;;;;;;;;;;12.20;81.50;;;;;;5061023;28;19927;-50
2022/04/23 07:31:32;;;;;;;;;;;12.20;80.70;;;;;;5065562;28;19924;-50
2022/04/23 07:39:26;;;;;;;;;;;12.30;79.50;;;;;;5045690;28;19922;-48
2022/04/23 07:41:54;;;;;;;;;;;12.40;78.30;;;;;;5061059;28;19916;-50
2022/04/23 07:44:23;;;;;;;;;;;12.50;77.60;;;;;;5055307;28;20649;-48
2022/04/23 07:46:49;;;;;;;;;;;12.50;76.80;;;;;;5056991;28;20233;-44
2022/04/23 07:49:14;;;;;;;;;;;12.60;76.60;;;;;;5060934;28;20300;-46
2022/04/23 07:51:41;;;;;;;;;;;12.70;75.20;;;;;;5058489;28;19989;-49
2022/04/23 07:54:06;;;;;;;;;;;12.70;77.00;;;;;;5059415;28;19931;-51
2022/04/23 07:56:32;;;;;;;;;;;12.80;75.60;;;;;;5056851;28;20347;-46
2022/04/23 07:58:58;;;;;;;;;;;12.90;74.20;;;;;;5061184;28;20309;-51
2022/04/23 08:01:23;;;;;;;;;;;13.00;74.10;;;;;;5060829;28;20407;-50
2022/04/23 08:03:49;;;;;;;;;;;13.10;72.00;;;;;;5061630;28;19970;-49
2022/04/23 08:06:15;;;;;;;;;;;13.10;70.70;;;;;;5063016;28;20293;-50
2022/04/23 08:08:41;;;;;;;;;;;13.20;71.80;;;;;;5063784;28;19920;-50
2022/04/23 08:11:06;;;;;;;;;;;13.30;71.50;;;;;;5064030;28;19962;-44
2022/04/23 08:13:32;;;;;;;;;;;13.40;70.40;;;;;;5057851;28;19924;-49
2022/04/23 08:15:59;;;;;;;;;;;13.40;70.20;;;;;;5060491;28;19916;-51
2022/04/23 08:18:25;;;;;;;;;;;13.50;69.70;;;;;;5055781;28;19974;-46
2022/04/23 08:20:51;;;;;;;;;;;13.60;69.90;;;;;;5056186;28;20349;-49
2022/04/23 08:23:17;;;;;;;;;;;13.70;68.70;;;;;;5050267;28;19917;-50
2022/04/23 08:25:46;;;;;;;;;;;13.80;68.40;;;;;;5037842;28;20019;-48
2022/04/23 08:30:55;;;;;;;;;;;14.00;67.20;;;;;;5038268;28;19928;-48
2022/04/23 08:33:21;;;;;;;;;;;14.00;66.00;;;;;;5061060;28;19923;-47
2022/04/23 08:35:47;;;;;;;;;;;14.00;64.00;;;;;;5060812;28;20007;-50
2022/04/23 08:38:12;;;;;;;;;;;14.10;64.20;;;;;;5056828;28;19924;-50
2022/04/23 08:40:43;;;;;;;;;;;14.10;64.40;;;;;;5053442;28;19916;-50
2022/04/23 08:43:08;;;;;;;;;;;14.20;63.90;;;;;;5056470;28;20365;-45
2022/04/23 08:45:38;;;;;;;;;;;14.30;64.80;;;;;;5052962;28;19943;-45
2022/04/23 08:48:07;;;;;;;;;;;14.50;63.70;;;;;;5056505;28;19964;-47
2022/04/23 08:50:34;;;;;;;;;;;14.50;62.90;;;;;;5057051;28;19951;-46
2022/04/23 08:53:01;;;;;;;;;;;14.60;61.90;;;;;;5057309;28;20385;-48
2022/04/23 08:55:26;;;;;;;;;;;14.60;61.30;;;;;;5059306;28;19962;-46
2022/04/23 08:57:52;;;;;;;;;;;14.70;61.60;;;;;;5060155;28;20337;-49
2022/04/23 09:00:18;;;;;;;;;;;14.80;61.20;;;;;;5064714;28;19916;-46
2022/04/23 09:02:44;;;;;;;;;;;14.90;61.30;;;;;;5065393;28;19916;-50
2022/04/23 09:05:13;;;;;;;;;;;15.00;60.70;;;;;;5068059;28;19994;-52
2022/04/23 09:07:38;;;;;;;;;;;15.10;60.10;;;;;;5067114;28;20427;-47
2022/04/23 09:10:05;;;;;;;;;;;15.20;59.00;;;;;;5049124;28;19916;-49
2022/04/23 09:12:31;;;;;;;;;;;15.30;59.40;;;;;;5066898;28;19931;-47
2022/04/23 09:15:07;;;;;;;;;;;15.40;59.00;;;;;;5081220;28;19954;-44
2022/04/23 09:23:43;;;;;;;;;;;15.70;58.50;;;;;;5067880;28;19916;-50
2022/04/23 09:26:15;;;;;;;;;;;15.70;57.40;;;;;;5064727;28;19916;-44
2022/04/23 09:28:44;;;;;;;;;;;15.80;56.90;;;;;;5041154;28;19924;-43
2022/04/23 09:31:13;;;;;;;;;;;15.80;56.70;;;;;;5066028;28;19987;-45
2022/04/23 09:33:42;;;;;;;;;;;15.90;56.80;;;;;;5070113;28;19916;-47
2022/04/23 09:36:08;;;;;;;;;;;15.90;56.10;;;;;;5063255;28;19916;-46
2022/04/23 09:38:33;;;;;;;;;;;16.10;56.30;;;;;;5068119;28;20308;-46
2022/04/23 09:41:15;;;;;;;;;;;16.20;56.10;;;;;;5066653;28;20019;-49
2022/04/23 09:43:41;;;;;;;;;;;16.20;55.40;;;;;;5056522;28;20403;-44
2022/04/23 09:46:08;;;;;;;;;;;16.30;54.30;;;;;;5063865;28;19926;-48
2022/04/23 09:48:34;;;;;;;;;;;16.30;53.90;;;;;;5077603;28;19928;-51
2022/04/23 09:51:00;;;;;;;;;;;16.40;55.20;;;;;;5071096;28;19920;-44
2022/04/23 09:53:27;;;;;;;;;;;16.40;54.10;;;;;;5087370;28;19920;-47
2022/04/23 09:55:54;;;;;;;;;;;16.50;54.10;;;;;;5083614;28;19924;-47
2022/04/23 09:58:20;;;;;;;;;;;16.60;54.10;;;;;;5063813;28;20007;-48
2022/04/23 10:00:47;;;;;;;;;;;16.60;53.80;;;;;;5078246;28;20084;-48
2022/04/23 10:03:13;;;;;;;;;;;16.70;53.40;;;;;;5070943;28;19916;-46
2022/04/23 10:05:48;;;;;;;;;;;16.80;53.10;;;;;;5076697;28;20042;-50
2022/04/23 10:08:14;;;;;;;;;;;16.90;53.40;;;;;;5084673;28;20005;-51
2022/04/23 10:10:44;;;;;;;;;;;16.80;52.30;;;;;;5084748;28;19951;-50
2022/04/23 10:13:11;;;;;;;;;;;16.90;52.60;;;;;;5083931;28;20423;-50
2022/04/23 10:15:38;;;;;;;;;;;16.90;52.60;;;;;;5083834;28;19952;-48
2022/04/23 10:18:05;;;;;;;;;;;17.00;52.50;;;;;;5081027;28;19916;-46
2022/04/23 10:20:30;;;;;;;;;;;17.00;51.70;;;;;;5068051;28;19916;-49
2022/04/23 10:22:56;;;;;;;;;;;17.00;52.00;;;;;;5082609;28;19943;-50
2022/04/23 10:25:24;;;;;;;;;;;17.10;51.80;;;;;;5082673;28;20648;-47
2022/04/23 10:27:51;;;;;;;;;;;17.30;51.80;;;;;;5082982;28;19915;-51
2022/04/23 10:30:17;;;;;;;;;;;17.40;51.40;;;;;;5081358;28;20338;-49
2022/04/23 10:32:43;;;;;;;;;;;17.40;51.40;;;;;;5087603;28;19916;-50
2022/04/23 10:35:30;;;;;;;;;;;17.50;51.10;;;;;;5082225;28;19920;-50
2022/04/23 10:37:56;;;;;;;;;;;17.60;51.30;;;;;;5062469;28;19924;-50
2022/04/23 10:40:22;;;;;;;;;;;17.70;51.20;;;;;;5087372;28;19930;-48
2022/04/23 10:43:20;;;;;;;;;;;17.80;50.70;;;;;;5085102;28;19982;-50
2022/04/23 10:45:48;;;;;;;;;;;17.90;50.60;;;;;;5046501;28;19977;-45
2022/04/23 10:48:22;;;;;;;;;;;18.00;50.30;;;;;;5064651;28;19920;-50
2022/04/23 10:50:57;;;;;;;;;;;18.10;50.10;;;;;;5079585;28;20289;-48
2022/04/23 10:53:37;;;;;;;;;;;18.10;49.80;;;;;;5077609;28;19924;-52
2022/04/23 10:56:06;;;;;;;;;;;18.10;48.90;;;;;;5081127;28;20372;-48
2022/04/23 10:58:33;;;;;;;;;;;18.10;49.30;;;;;;5081987;28;19924;-51
2022/04/23 11:01:29;;;;;;;;;;;18.30;50.10;;;;;;5083471;28;19916;-51
2022/04/23 11:03:55;;;;;;;;;;;18.40;49.60;;;;;;5064634;28;19920;-49
2022/04/23 11:12:37;;;;;;;;;;;18.70;48.00;;;;;;5084436;28;19998;-48
2022/04/23 11:15:14;;;;;;;;;;;18.80;48.10;;;;;;5065706;28;19928;-51
2022/04/23 11:17:39;;;;;;;;;;;18.80;47.20;;;;;;5079402;28;19916;-48
2022/04/23 11:20:05;;;;;;;;;;;18.80;46.90;;;;;;5081131;28;20428;-50
2022/04/23 11:22:30;;;;;;;;;;;18.70;45.90;;;;;;5082970;28;19923;-47
2022/04/23 11:24:57;;;;;;;;;;;18.70;46.30;;;;;;5080267;28;19922;-50
2022/04/23 11:27:28;;;;;;;;;;;18.80;47.70;;;;;;5083018;28;19922;-52
2022/04/23 11:29:54;;;;;;;;;;;18.90;46.90;;;;;;5079974;28;19920;-51
2022/04/23 11:32:26;;;;;;;;;;;19.00;47.10;;;;;;5077677;28;19984;-51
2022/04/23 11:34:55;;;;;;;;;;;19.00;46.90;;;;;;5087179;28;19919;-50
2022/04/23 11:37:31;;;;;;;;;;;19.10;46.80;;;;;;5068905;28;20384;-48
2022/04/23 11:40:09;;;;;;;;;;;19.20;46.50;;;;;;5076661;28;20295;-50
2022/04/23 11:42:42;;;;;;;;;;;19.40;47.30;;;;;;5083534;28;19968;-50
2022/04/23 11:45:08;;;;;;;;;;;19.50;45.60;;;;;;5082481;28;19926;-52
2022/04/23 11:47:34;;;;;;;;;;;19.50;45.20;;;;;;5080795;28;19931;-50
2022/04/23 13:36:31;;;;;;;;;;;24.80;28.70;;;;;;5152124;27;786986;-53
2022/04/23 13:38:57;;;;;;;;;;;24.80;29.50;;;;;;5186877;27;19923;-50
2022/04/23 13:41:22;;;;;;;;;;;25.10;29.30;;;;;;5184790;27;19926;-53
2022/04/23 13:43:48;;;;;;;;;;;25.50;30.00;;;;;;5168687;27;20478;-54
2022/04/23 13:46:14;;;;;;;;;;;25.90;29.70;;;;;;5134243;27;19927;-54
2022/04/23 13:48:40;;;;;;;;;;;26.10;29.20;;;;;;5138213;27;19923;-51
2022/04/23 13:51:06;;;;;;;;;;;26.20;28.10;;;;;;5140675;27;19931;-55
2022/04/23 13:53:31;;;;;;;;;;;26.30;28.20;;;;;;5134227;27;19998;-53
2022/04/23 13:55:57;;;;;;;;;;;26.40;28.50;;;;;;5139590;27;19927;-51
2022/04/23 13:58:22;;;;;;;;;;;26.70;29.40;;;;;;5139690;27;19973;-54
2022/04/23 14:00:48;;;;;;;;;;;26.90;27.20;;;;;;5136537;27;19919;-54
2022/04/23 14:11:26;;;;;;;;;;;27.00;25.70;;;;;;5137848;27;20367;-49
2022/04/23 14:13:52;;;;;;;;;;;27.00;26.20;;;;;;5135351;27;20000;-52
2022/04/23 14:16:18;;;;;;;;;;;27.20;25.20;;;;;;5135651;27;19924;-51
2022/04/23 15:09:32;;;;;;;6.75;4.63;;;28.90;23.50;;;;;;4973500;28;20169;-86
2022/04/23 15:11:58;;;;;;;8.70;3.85;;;28.90;23.80;;;;;;4990237;28;20034;-84
2022/04/23 15:14:24;;;;;;;5.53;3.30;;;29.10;23.70;;;;;;4957998;28;20105;-86
2022/04/23 15:16:53;;;;;;;5.38;3.50;;;29.20;23.50;;;;;;4977789;28;20459;-84
2022/04/23 15:19:18;;;;;;;8.90;3.78;;;29.00;22.80;;;;;;5006650;28;20505;-87
2022/04/23 15:21:44;;;;;;;11.35;3.45;;;29.00;22.90;;;;;;4975168;28;20030;-88
2022/04/23 15:24:10;;;;;;;17.40;4.35;;;29.10;23.10;;;;;;4978759;28;20034;-87
2022/04/23 15:26:39;;;;;;;7.07;3.90;;;29.20;23.20;;;;;;4955736;28;20039;-89
2022/04/23 15:29:04;;;;;;;7.93;6.95;;;29.30;23.20;;;;;;4950492;28;20061;-87
2022/04/23 15:31:30;;;;;;;42.40;38.72;;;29.20;23.10;;;;;;4974008;28;20475;-84
2022/04/23 15:33:55;;;;;;;16.40;14.80;;;29.30;23.10;;;;;;4958435;28;20031;-82
2022/04/23 15:36:21;;;;;;;454.55;411.60;;;29.60;23.30;;;;;;4974164;28;20149;-84
2022/04/23 15:38:47;;;;;;;22.05;19.63;;;29.50;22.90;;;;;;4976673;28;20042;-84
2022/04/23 15:41:12;;;;;;;50.28;46.80;;;29.30;22.70;;;;;;4971440;28;20436;-83
2022/04/23 15:43:38;;;;;;;15.30;7.68;;;29.20;22.60;;;;;;4973036;28;20410;-84
2022/04/23 15:46:06;;;;;;;10.45;4.85;;;29.10;22.70;;;;;;4987013;28;20395;-83
2022/04/23 15:48:32;;;;;;;5.45;3.60;;;29.20;22.50;;;;;;4975623;28;21450;-84
2022/04/23 15:50:58;;;;;;;8.48;3.60;;;29.40;22.60;;;;;;4976334;28;20058;-83
2022/04/23 15:53:23;;;;;;;21.42;6.25;;;29.50;22.60;;;;;;4957038;28;20053;-84
2022/04/23 15:55:49;;;;;;;3.83;3.42;;;29.50;22.40;;;;;;4989702;28;20503;-83
2022/04/23 15:58:15;;;;;;;27.67;24.52;;;29.50;22.40;;;;;;4973052;28;20488;-83
2022/04/23 16:00:42;;;;;;;109.70;97.28;;;29.30;22.20;;;;;;4974033;28;20043;-84
2022/04/23 16:03:27;;;;;;;24.20;21.75;;;29.50;22.20;;;;;;4965238;28;20363;-83
2022/04/23 16:05:59;;;;;;;5.35;3.58;;;29.60;22.10;;;;;;4989149;28;20592;-84
2022/04/23 16:08:26;;;;;;;4.07;3.03;;;29.40;21.40;;;;;;4992486;28;20080;-84
2022/04/23 16:10:55;;;;;;;7.95;3.65;;;29.00;21.60;;;;;;4972663;28;20045;-83
2022/04/23 16:13:22;;;;;;;12.25;10.85;;;29.20;21.80;;;;;;4957902;28;20552;-84
2022/04/23 16:15:48;;;;;;;18.70;12.50;;;29.10;21.80;;;;;;4953947;28;20037;-83
2022/04/23 16:18:14;;;;;;;67.70;59.50;;;29.00;21.80;;;;;;4988539;28;20046;-84
2022/04/23 16:20:39;;;;;;;;;;;28.90;21.90;;;;;;4958300;28;20049;-84
2022/04/23 16:23:05;;;;;;;;;;;28.60;20.80;;;;;;4974069;28;19948;-84
2022/04/23 16:25:32;;;;;;;;;;;28.20;21.30;;;;;;4971025;28;20400;-83
2022/04/23 16:27:58;;;;;;;;;;;27.70;21.80;;;;;;4990684;28;20374;-83
2022/04/23 16:30:23;;;;;;;;;;;27.30;22.50;;;;;;4972776;28;20418;-82
2022/04/23 16:32:49;;;;;;;;;;;26.80;22.50;;;;;;4953313;28;20012;-83
2022/04/23 16:35:15;;;;;;;;;;;26.60;22.60;;;;;;4956825;28;19981;-83
2022/04/23 16:48:37;;;;;;;;;;;27.20;22.40;;;;;;4989032;28;19922;-83
2022/04/23 16:51:03;;;;;;;;;;;27.60;22.90;;;;;;4991624;28;20365;-83
2022/04/23 16:53:29;;;;;;;;;;;27.90;23.10;;;;;;4976899;28;20278;-83
2022/04/23 16:55:54;;;;;;;;;;;27.80;22.30;;;;;;4987001;28;20022;-83
2022/04/23 16:58:20;;;;;;;;;;;27.90;22.10;;;;;;4970114;28;19925;-83
2022/04/23 17:00:45;;;;;;;;;;;27.90;22.30;;;;;;4989266;28;19924;-83
2022/04/23 17:03:11;;;;;;;;;;;27.90;22.10;;;;;;4975196;28;20111;-84
2022/04/23 17:05:37;;;;;;;;;;;27.80;22.00;;;;;;4988837;28;20008;-84
2022/04/23 17:13:40;;;;;;;;;;;28.00;22.20;;;;;;3290357;23;19956;-43
2022/04/23 17:16:06;;;;;;;;;;;28.10;22.00;;;;;;5020341;28;20317;-44
2022/04/23 17:18:32;;;;;;;;;;;27.90;21.90;;;;;;5021236;28;19924;-47
2022/04/23 17:20:57;;;;;;;;;;;27.80;22.10;;;;;;5017647;28;19921;-44
2022/04/23 17:23:23;;;;;;;;;;;27.70;22.60;;;;;;4997377;28;19964;-44
2022/04/23 17:25:48;;;;;;;;;;;27.60;22.50;;;;;;5020388;28;19932;-46
2022/04/23 17:28:14;;;;;;;4.83;3.47;;;27.40;22.40;;;;;;5017263;28;20431;-44
2022/04/23 17:30:40;;;;;;;4.60;3.20;;;28.00;22.80;;;;;;5021026;28;20036;-43